sensor_id;sensor_type;location;lat;lon;timestamp;P1;durP1;ratioP1;P2;durP2;ratioP2
23336;SDS011;11840;45.414;12.372;2023-09-19T07:15:21;17.38;;;5.28;;
23336;SDS011;11840;45.414;12.372;2023-09-19T07:17:49;20.10;;;6.10;;
23336;SDS011;11840;45.414;12.372;2023-09-19T07:20:14;13.55;;;5.50;;
23336;SDS011;11840;45.414;12.372;2023-09-19T07:22:41;15.50;;;6.22;;
23336;SDS011;11840;45.414;12.372;2023-09-19T07:25:07;17.40;;;6.00;;
23336;SDS011;11840;45.414;12.372;2023-09-19T07:27:33;17.85;;;5.78;;
23336;SDS011;11840;45.414;12.372;2023-09-19T07:29:59;21.92;;;6.40;;
23336;SDS011;11840;45.414;12.372;2023-09-19T07:32:25;18.98;;;6.78;;
23336;SDS011;11840;45.414;12.372;2023-09-19T07:34:51;16.85;;;6.55;;
23336;SDS011;11840;45.414;12.372;2023-09-19T07:37:16;23.23;;;7.55;;
23336;SDS011;11840;45.414;12.372;2023-09-19T07:39:42;20.65;;;8.35;;
23336;SDS011;11840;45.414;12.372;2023-09-19T07:42:10;20.92;;;8.10;;
23336;SDS011;11840;45.414;12.372;2023-09-19T07:44:37;20.90;;;7.95;;
23336;SDS011;11840;45.414;12.372;2023-09-19T07:47:03;24.25;;;7.68;;
23336;SDS011;11840;45.414;12.372;2023-09-19T07:49:29;20.10;;;8.93;;
23336;SDS011;11840;45.414;12.372;2023-09-19T07:51:55;14.93;;;8.18;;
23336;SDS011;11840;45.414;12.372;2023-09-19T07:54:22;21.65;;;7.30;;
23336;SDS011;11840;45.414;12.372;2023-09-19T07:56:48;19.98;;;7.80;;
23336;SDS011;11840;45.414;12.372;2023-09-19T07:59:14;24.80;;;8.48;;
23336;SDS011;11840;45.414;12.372;2023-09-19T08:01:40;20.83;;;8.20;;
23336;SDS011;11840;45.414;12.372;2023-09-19T08:04:07;22.42;;;8.25;;
23336;SDS011;11840;45.414;12.372;2023-09-19T08:06:33;19.00;;;8.65;;
23336;SDS011;11840;45.414;12.372;2023-09-19T08:08:59;22.27;;;8.05;;
23336;SDS011;11840;45.414;12.372;2023-09-19T08:11:26;18.40;;;8.65;;
23336;SDS011;11840;45.414;12.372;2023-09-19T08:13:56;22.17;;;10.00;;
23336;SDS011;11840;45.414;12.372;2023-09-19T08:16:23;18.35;;;8.80;;
23336;SDS011;11840;45.414;12.372;2023-09-19T08:18:50;16.35;;;8.48;;
23336;SDS011;11840;45.414;12.372;2023-09-19T08:21:18;24.02;;;9.75;;
23336;SDS011;11840;45.414;12.372;2023-09-19T08:23:44;25.27;;;9.82;;
23336;SDS011;11840;45.414;12.372;2023-09-19T08:26:10;27.55;;;9.65;;
23336;SDS011;11840;45.414;12.372;2023-09-19T08:28:36;22.70;;;9.02;;
23336;SDS011;11840;45.414;12.372;2023-09-19T08:31:03;24.73;;;10.02;;
23336;SDS011;11840;45.414;12.372;2023-09-19T08:33:31;25.92;;;9.73;;
23336;SDS011;11840;45.414;12.372;2023-09-19T08:35:56;32.60;;;9.90;;
23336;SDS011;11840;45.414;12.372;2023-09-19T08:38:23;24.48;;;8.80;;
23336;SDS011;11840;45.414;12.372;2023-09-19T08:40:49;25.40;;;8.93;;
23336;SDS011;11840;45.414;12.372;2023-09-19T08:43:15;22.20;;;8.43;;
23336;SDS011;11840;45.414;12.372;2023-09-19T08:45:41;21.98;;;7.45;;
23336;SDS011;11840;45.414;12.372;2023-09-19T08:50:37;18.20;;;6.95;;
23336;SDS011;11840;45.414;12.372;2023-09-19T08:53:11;15.70;;;6.68;;
23336;SDS011;11840;45.414;12.372;2023-09-19T08:55:39;16.67;;;6.85;;
23336;SDS011;11840;45.414;12.372;2023-09-19T08:58:07;14.55;;;6.85;;
23336;SDS011;11840;45.414;12.372;2023-09-19T09:00:35;14.48;;;5.78;;
23336;SDS011;11840;45.414;12.372;2023-09-19T09:03:02;16.38;;;6.50;;
23336;SDS011;11840;45.414;12.372;2023-09-19T09:05:29;21.63;;;7.25;;
23336;SDS011;11840;45.414;12.372;2023-09-19T09:07:55;18.75;;;6.22;;
23336;SDS011;11840;45.414;12.372;2023-09-19T09:10:22;22.63;;;8.30;;
23336;SDS011;11840;45.414;12.372;2023-09-19T09:12:51;21.33;;;8.02;;
23336;SDS011;11840;45.414;12.372;2023-09-19T09:15:19;18.67;;;8.32;;
23336;SDS011;11840;45.414;12.372;2023-09-19T09:17:47;16.88;;;7.35;;
23336;SDS011;11840;45.414;12.372;2023-09-19T09:20:13;18.00;;;8.35;;
23336;SDS011;11840;45.414;12.372;2023-09-19T09:22:47;23.88;;;7.90;;
23336;SDS011;11840;45.414;12.372;2023-09-19T09:25:15;17.92;;;7.90;;
23336;SDS011;11840;45.414;12.372;2023-09-19T09:27:44;19.02;;;7.28;;
23336;SDS011;11840;45.414;12.372;2023-09-19T09:30:11;16.25;;;7.32;;
23336;SDS011;11840;45.414;12.372;2023-09-19T09:33:10;21.83;;;8.05;;
23336;SDS011;11840;45.414;12.372;2023-09-19T09:38:20;17.70;;;8.25;;
23336;SDS011;11840;45.414;12.372;2023-09-19T09:40:49;16.92;;;9.15;;
23336;SDS011;11840;45.414;12.372;2023-09-19T09:43:33;23.60;;;9.02;;
23336;SDS011;11840;45.414;12.372;2023-09-19T09:51:38;14.00;;;7.30;;
23336;SDS011;11840;45.414;12.372;2023-09-19T09:54:17;25.65;;;7.25;;
23336;SDS011;11840;45.414;12.372;2023-09-19T09:59:23;19.67;;;7.38;;
23336;SDS011;11840;45.414;12.372;2023-09-19T10:01:49;18.48;;;7.72;;
23336;SDS011;11840;45.414;12.372;2023-09-19T10:04:28;16.27;;;8.70;;
23336;SDS011;11840;45.414;12.372;2023-09-19T10:07:02;21.05;;;8.93;;
23336;SDS011;11840;45.414;12.372;2023-09-19T10:09:44;15.80;;;8.40;;
23336;SDS011;11840;45.414;12.372;2023-09-19T10:12:10;18.10;;;7.28;;
23336;SDS011;11840;45.414;12.372;2023-09-19T10:14:38;18.95;;;7.75;;
23336;SDS011;11840;45.414;12.372;2023-09-19T10:17:07;18.92;;;8.20;;
23336;SDS011;11840;45.414;12.372;2023-09-19T10:20:08;19.35;;;7.63;;
23336;SDS011;11840;45.414;12.372;2023-09-19T10:22:34;18.17;;;7.85;;
23336;SDS011;11840;45.414;12.372;2023-09-19T10:25:02;19.80;;;8.68;;
23336;SDS011;11840;45.414;12.372;2023-09-19T10:27:32;14.27;;;7.47;;
23336;SDS011;11840;45.414;12.372;2023-09-19T10:30:04;19.13;;;7.63;;
23336;SDS011;11840;45.414;12.372;2023-09-19T10:32:33;14.63;;;7.80;;
23336;SDS011;11840;45.414;12.372;2023-09-19T10:35:01;23.00;;;7.72;;
23336;SDS011;11840;45.414;12.372;2023-09-19T10:37:27;15.82;;;8.27;;
23336;SDS011;11840;45.414;12.372;2023-09-19T10:39:55;18.85;;;7.82;;
23336;SDS011;11840;45.414;12.372;2023-09-19T10:42:22;13.98;;;6.63;;
23336;SDS011;11840;45.414;12.372;2023-09-19T10:44:51;19.38;;;7.57;;
23336;SDS011;11840;45.414;12.372;2023-09-19T10:47:19;18.73;;;7.22;;
23336;SDS011;11840;45.414;12.372;2023-09-19T10:49:45;21.58;;;7.45;;
23336;SDS011;11840;45.414;12.372;2023-09-19T10:52:15;17.35;;;6.93;;
23336;SDS011;11840;45.414;12.372;2023-09-19T10:54:48;15.27;;;7.15;;
23336;SDS011;11840;45.414;12.372;2023-09-19T10:57:23;15.10;;;7.43;;
23336;SDS011;11840;45.414;12.372;2023-09-19T11:02:29;17.73;;;7.10;;
23336;SDS011;11840;45.414;12.372;2023-09-19T11:04:55;18.73;;;7.55;;
23336;SDS011;11840;45.414;12.372;2023-09-19T11:16:06;16.13;;;6.50;;
23336;SDS011;11840;45.414;12.372;2023-09-19T11:26:43;16.58;;;6.80;;
23336;SDS011;11840;45.414;12.372;2023-09-19T11:29:25;14.05;;;6.25;;
23336;SDS011;11840;45.414;12.372;2023-09-19T11:31:51;16.33;;;5.68;;
23336;SDS011;11840;45.414;12.372;2023-09-19T11:37:02;17.30;;;7.30;;
23336;SDS011;11840;45.414;12.372;2023-09-19T11:39:30;13.57;;;6.18;;
23336;SDS011;11840;45.414;12.372;2023-09-19T11:41:56;14.00;;;6.65;;
23336;SDS011;11840;45.414;12.372;2023-09-19T11:46:52;17.88;;;7.05;;
23336;SDS011;11840;45.414;12.372;2023-09-19T11:49:19;18.13;;;7.05;;
23336;SDS011;11840;45.414;12.372;2023-09-19T11:51:52;18.92;;;7.45;;
23336;SDS011;11840;45.414;12.372;2023-09-19T11:54:29;20.35;;;6.82;;
23336;SDS011;11840;45.414;12.372;2023-09-19T11:56:57;20.75;;;7.03;;
23336;SDS011;11840;45.414;12.372;2023-09-19T11:59:24;15.23;;;6.90;;
23336;SDS011;11840;45.414;12.372;2023-09-19T12:01:54;15.23;;;6.47;;
23336;SDS011;11840;45.414;12.372;2023-09-19T12:04:44;19.42;;;6.22;;
23336;SDS011;11840;45.414;12.372;2023-09-19T12:07:11;18.02;;;5.93;;
23336;SDS011;11840;45.414;12.372;2023-09-19T12:09:45;11.93;;;5.20;;
23336;SDS011;11840;45.414;12.372;2023-09-19T12:12:19;14.38;;;6.22;;
23336;SDS011;11840;45.414;12.372;2023-09-19T12:14:48;16.83;;;5.47;;
23336;SDS011;11840;45.414;12.372;2023-09-19T12:17:14;17.83;;;5.88;;
23336;SDS011;11840;45.414;12.372;2023-09-19T12:19:47;20.75;;;6.15;;
23336;SDS011;11840;45.414;12.372;2023-09-19T12:22:15;15.32;;;5.57;;
23336;SDS011;11840;45.414;12.372;2023-09-19T12:24:43;15.90;;;5.63;;
23336;SDS011;11840;45.414;12.372;2023-09-19T12:27:10;14.40;;;6.22;;
23336;SDS011;11840;45.414;12.372;2023-09-19T12:32:09;14.25;;;6.05;;
23336;SDS011;11840;45.414;12.372;2023-09-19T12:34:35;15.27;;;6.13;;
23336;SDS011;11840;45.414;12.372;2023-09-19T12:37:08;18.30;;;6.28;;
23336;SDS011;11840;45.414;12.372;2023-09-19T12:40:03;13.82;;;5.75;;
23336;SDS011;11840;45.414;12.372;2023-09-19T12:42:40;15.57;;;6.38;;
23336;SDS011;11840;45.414;12.372;2023-09-19T12:45:07;15.18;;;5.57;;
23336;SDS011;11840;45.414;12.372;2023-09-19T12:47:35;14.02;;;6.40;;
23336;SDS011;11840;45.414;12.372;2023-09-19T12:50:11;18.90;;;5.47;;
23336;SDS011;11840;45.414;12.372;2023-09-19T12:55:25;11.75;;;6.00;;
23336;SDS011;11840;45.414;12.372;2023-09-19T13:00:33;15.38;;;5.82;;
23336;SDS011;11840;45.414;12.372;2023-09-19T13:06:03;19.50;;;6.00;;
23336;SDS011;11840;45.414;12.372;2023-09-19T13:08:34;17.88;;;5.63;;
23336;SDS011;11840;45.414;12.372;2023-09-19T13:13:33;13.70;;;4.93;;
23336;SDS011;11840;45.414;12.372;2023-09-19T13:16:00;12.40;;;5.43;;
23336;SDS011;11840;45.414;12.372;2023-09-19T13:18:26;13.10;;;4.75;;
23336;SDS011;11840;45.414;12.372;2023-09-19T13:21:06;17.92;;;5.43;;
23336;SDS011;11840;45.414;12.372;2023-09-19T13:23:36;12.02;;;4.95;;
23336;SDS011;11840;45.414;12.372;2023-09-19T13:26:02;12.75;;;4.72;;
23336;SDS011;11840;45.414;12.372;2023-09-19T13:28:30;13.60;;;4.90;;
23336;SDS011;11840;45.414;12.372;2023-09-19T13:30:56;12.07;;;4.53;;
23336;SDS011;11840;45.414;12.372;2023-09-19T13:33:22;13.15;;;4.43;;
23336;SDS011;11840;45.414;12.372;2023-09-19T13:35:48;14.88;;;5.50;;
23336;SDS011;11840;45.414;12.372;2023-09-19T13:38:14;12.68;;;5.45;;
23336;SDS011;11840;45.414;12.372;2023-09-19T13:40:40;16.40;;;5.25;;
23336;SDS011;11840;45.414;12.372;2023-09-19T13:43:07;13.57;;;5.75;;
23336;SDS011;11840;45.414;12.372;2023-09-19T13:45:33;15.15;;;5.18;;
23336;SDS011;11840;45.414;12.372;2023-09-19T13:47:59;14.95;;;5.32;;
23336;SDS011;11840;45.414;12.372;2023-09-19T13:50:25;20.00;;;5.30;;
23336;SDS011;11840;45.414;12.372;2023-09-19T13:52:55;16.77;;;4.95;;
23336;SDS011;11840;45.414;12.372;2023-09-19T13:55:21;14.95;;;5.10;;
23336;SDS011;11840;45.414;12.372;2023-09-19T13:57:47;14.38;;;5.20;;
23336;SDS011;11840;45.414;12.372;2023-09-19T14:00:16;12.88;;;4.95;;
23336;SDS011;11840;45.414;12.372;2023-09-19T14:02:43;16.77;;;4.47;;
23336;SDS011;11840;45.414;12.372;2023-09-19T14:05:12;13.30;;;4.68;;
23336;SDS011;11840;45.414;12.372;2023-09-19T14:07:40;17.85;;;4.63;;
23336;SDS011;11840;45.414;12.372;2023-09-19T14:10:07;15.75;;;4.63;;
23336;SDS011;11840;45.414;12.372;2023-09-19T14:12:36;16.13;;;5.03;;
23336;SDS011;11840;45.414;12.372;2023-09-19T14:15:02;14.02;;;4.47;;
23336;SDS011;11840;45.414;12.372;2023-09-19T14:17:29;10.38;;;4.40;;
23336;SDS011;11840;45.414;12.372;2023-09-19T14:19:55;10.93;;;4.18;;
23336;SDS011;11840;45.414;12.372;2023-09-19T14:22:21;11.15;;;4.68;;
23336;SDS011;11840;45.414;12.372;2023-09-19T14:24:47;13.65;;;4.88;;
23336;SDS011;11840;45.414;12.372;2023-09-19T14:27:13;16.55;;;5.53;;
23336;SDS011;11840;45.414;12.372;2023-09-19T14:29:40;15.77;;;5.10;;
23336;SDS011;11840;45.414;12.372;2023-09-19T14:32:07;17.13;;;5.82;;
23336;SDS011;11840;45.414;12.372;2023-09-19T14:34:34;16.13;;;5.78;;
23336;SDS011;11840;45.414;12.372;2023-09-19T14:37:02;17.48;;;6.63;;
23336;SDS011;11840;45.414;12.372;2023-09-19T14:39:28;17.33;;;6.53;;
23336;SDS011;11840;45.414;12.372;2023-09-19T14:41:54;16.15;;;6.20;;
23336;SDS011;11840;45.414;12.372;2023-09-19T14:44:20;20.73;;;6.43;;
23336;SDS011;11840;45.414;12.372;2023-09-19T14:46:46;19.00;;;5.93;;
23336;SDS011;11840;45.414;12.372;2023-09-19T14:49:13;18.15;;;6.18;;
23336;SDS011;11840;45.414;12.372;2023-09-19T14:51:41;20.27;;;6.38;;
23336;SDS011;11840;45.414;12.372;2023-09-19T14:54:09;15.38;;;5.82;;
23336;SDS011;11840;45.414;12.372;2023-09-19T14:56:35;16.88;;;5.50;;
23336;SDS011;11840;45.414;12.372;2023-09-19T14:59:01;16.60;;;6.07;;
23336;SDS011;11840;45.414;12.372;2023-09-19T15:01:28;16.23;;;5.63;;
23336;SDS011;11840;45.414;12.372;2023-09-19T15:03:54;13.35;;;5.22;;
23336;SDS011;11840;45.414;12.372;2023-09-19T15:06:20;16.90;;;5.90;;
23336;SDS011;11840;45.414;12.372;2023-09-19T15:08:46;12.32;;;5.20;;
23336;SDS011;11840;45.414;12.372;2023-09-19T15:11:16;13.57;;;6.00;;
23336;SDS011;11840;45.414;12.372;2023-09-19T15:13:42;15.75;;;5.35;;
23336;SDS011;11840;45.414;12.372;2023-09-19T15:16:10;17.25;;;6.15;;
23336;SDS011;11840;45.414;12.372;2023-09-19T15:18:37;16.02;;;4.78;;
23336;SDS011;11840;45.414;12.372;2023-09-19T15:21:07;17.73;;;6.00;;
23336;SDS011;11840;45.414;12.372;2023-09-19T15:23:36;18.52;;;6.38;;
23336;SDS011;11840;45.414;12.372;2023-09-19T15:26:06;15.75;;;5.57;;
23336;SDS011;11840;45.414;12.372;2023-09-19T15:28:32;17.30;;;6.60;;
23336;SDS011;11840;45.414;12.372;2023-09-19T15:31:02;17.13;;;6.05;;
23336;SDS011;11840;45.414;12.372;2023-09-19T15:33:29;17.90;;;5.60;;
23336;SDS011;11840;45.414;12.372;2023-09-19T15:36:08;16.02;;;6.15;;
23336;SDS011;11840;45.414;12.372;2023-09-19T15:41:19;14.70;;;5.82;;
23336;SDS011;11840;45.414;12.372;2023-09-19T15:43:45;15.00;;;5.93;;
23336;SDS011;11840;45.414;12.372;2023-09-19T15:46:11;15.32;;;5.35;;
23336;SDS011;11840;45.414;12.372;2023-09-19T15:48:39;14.20;;;4.57;;
23336;SDS011;11840;45.414;12.372;2023-09-19T15:51:05;12.15;;;3.42;;
23336;SDS011;11840;45.414;12.372;2023-09-19T15:53:37;16.35;;;4.30;;
23336;SDS011;11840;45.414;12.372;2023-09-19T15:56:07;12.38;;;4.53;;
23336;SDS011;11840;45.414;12.372;2023-09-19T15:58:33;16.85;;;4.28;;
23336;SDS011;11840;45.414;12.372;2023-09-19T16:01:04;19.98;;;4.70;;
23336;SDS011;11840;45.414;12.372;2023-09-19T16:03:30;11.90;;;4.05;;
23336;SDS011;11840;45.414;12.372;2023-09-19T16:05:56;12.95;;;4.15;;
23336;SDS011;11840;45.414;12.372;2023-09-19T16:08:22;6.97;;;2.40;;
23336;SDS011;11840;45.414;12.372;2023-09-19T16:10:48;8.77;;;2.78;;
23336;SDS011;11840;45.414;12.372;2023-09-19T16:13:14;7.05;;;2.50;;
23336;SDS011;11840;45.414;12.372;2023-09-19T16:15:41;9.38;;;2.80;;
23336;SDS011;11840;45.414;12.372;2023-09-19T16:18:08;10.98;;;2.60;;
23336;SDS011;11840;45.414;12.372;2023-09-19T16:20:34;7.22;;;2.08;;
23336;SDS011;11840;45.414;12.372;2023-09-19T16:23:02;7.53;;;2.63;;
23336;SDS011;11840;45.414;12.372;2023-09-19T16:25:28;5.13;;;1.98;;
23336;SDS011;11840;45.414;12.372;2023-09-19T16:27:54;6.68;;;2.65;;
23336;SDS011;11840;45.414;12.372;2023-09-19T16:30:20;6.30;;;2.17;;
23336;SDS011;11840;45.414;12.372;2023-09-19T16:32:46;5.85;;;2.38;;
23336;SDS011;11840;45.414;12.372;2023-09-19T16:35:11;7.78;;;2.38;;
23336;SDS011;11840;45.414;12.372;2023-09-19T16:37:37;6.15;;;2.10;;
23336;SDS011;11840;45.414;12.372;2023-09-19T16:40:04;5.85;;;2.47;;
23336;SDS011;11840;45.414;12.372;2023-09-19T16:42:30;8.75;;;2.45;;
23336;SDS011;11840;45.414;12.372;2023-09-19T16:44:55;8.98;;;2.45;;
23336;SDS011;11840;45.414;12.372;2023-09-19T16:47:21;6.85;;;2.40;;
23336;SDS011;11840;45.414;12.372;2023-09-19T16:49:47;9.90;;;2.10;;
23336;SDS011;11840;45.414;12.372;2023-09-19T16:52:13;8.27;;;2.42;;
23336;SDS011;11840;45.414;12.372;2023-09-19T16:54:39;9.60;;;2.65;;
23336;SDS011;11840;45.414;12.372;2023-09-19T16:57:06;8.10;;;2.28;;
23336;SDS011;11840;45.414;12.372;2023-09-19T16:59:32;9.63;;;2.50;;
23336;SDS011;11840;45.414;12.372;2023-09-19T17:01:58;12.60;;;3.10;;
23336;SDS011;11840;45.414;12.372;2023-09-19T17:04:24;10.13;;;2.97;;
23336;SDS011;11840;45.414;12.372;2023-09-19T17:06:52;11.00;;;2.90;;
23336;SDS011;11840;45.414;12.372;2023-09-19T17:09:18;9.02;;;2.75;;
23336;SDS011;11840;45.414;12.372;2023-09-19T17:11:44;11.98;;;2.80;;
23336;SDS011;11840;45.414;12.372;2023-09-19T17:14:12;11.40;;;2.85;;
23336;SDS011;11840;45.414;12.372;2023-09-19T17:16:38;14.25;;;3.17;;
23336;SDS011;11840;45.414;12.372;2023-09-19T17:19:04;11.40;;;3.50;;
23336;SDS011;11840;45.414;12.372;2023-09-19T17:21:30;11.10;;;3.10;;
23336;SDS011;11840;45.414;12.372;2023-09-19T17:23:56;11.63;;;3.10;;
23336;SDS011;11840;45.414;12.372;2023-09-19T17:26:24;15.05;;;3.70;;
23336;SDS011;11840;45.414;12.372;2023-09-19T17:28:51;13.52;;;3.85;;
23336;SDS011;11840;45.414;12.372;2023-09-19T17:31:18;10.90;;;3.75;;
23336;SDS011;11840;45.414;12.372;2023-09-19T17:33:45;13.75;;;4.22;;
23336;SDS011;11840;45.414;12.372;2023-09-19T17:36:16;12.93;;;4.38;;
23336;SDS011;11840;45.414;12.372;2023-09-19T17:38:43;15.40;;;5.25;;
23336;SDS011;11840;45.414;12.372;2023-09-19T17:41:10;10.15;;;4.22;;
23336;SDS011;11840;45.414;12.372;2023-09-19T17:43:40;11.60;;;4.07;;
23336;SDS011;11840;45.414;12.372;2023-09-19T17:46:07;11.98;;;4.00;;
23336;SDS011;11840;45.414;12.372;2023-09-19T17:48:39;13.07;;;4.05;;
23336;SDS011;11840;45.414;12.372;2023-09-19T17:51:06;13.68;;;4.63;;
23336;SDS011;11840;45.414;12.372;2023-09-19T17:53:32;14.27;;;4.45;;
23336;SDS011;11840;45.414;12.372;2023-09-19T17:55:59;11.18;;;3.80;;
23336;SDS011;11840;45.414;12.372;2023-09-19T17:58:26;8.23;;;3.38;;
23336;SDS011;11840;45.414;12.372;2023-09-19T18:00:52;10.25;;;3.80;;
23336;SDS011;11840;45.414;12.372;2023-09-19T18:03:18;7.85;;;3.22;;
23336;SDS011;11840;45.414;12.372;2023-09-19T18:05:44;8.25;;;3.22;;
23336;SDS011;11840;45.414;12.372;2023-09-19T18:08:10;7.50;;;3.45;;
23336;SDS011;11840;45.414;12.372;2023-09-19T18:10:38;9.93;;;3.88;;
23336;SDS011;11840;45.414;12.372;2023-09-19T18:13:05;7.00;;;2.85;;
23336;SDS011;11840;45.414;12.372;2023-09-19T18:15:31;7.85;;;3.50;;
23336;SDS011;11840;45.414;12.372;2023-09-19T18:18:05;6.35;;;2.97;;
23336;SDS011;11840;45.414;12.372;2023-09-19T18:20:33;6.45;;;3.13;;
23336;SDS011;11840;45.414;12.372;2023-09-19T18:23:00;19.98;;;14.75;;
23336;SDS011;11840;45.414;12.372;2023-09-19T18:25:26;7.85;;;3.95;;
23336;SDS011;11840;45.414;12.372;2023-09-19T18:27:53;9.40;;;3.25;;
23336;SDS011;11840;45.414;12.372;2023-09-19T18:30:19;5.13;;;2.50;;
23336;SDS011;11840;45.414;12.372;2023-09-19T18:32:46;8.90;;;2.92;;
23336;SDS011;11840;45.414;12.372;2023-09-19T18:35:12;6.60;;;3.20;;
23336;SDS011;11840;45.414;12.372;2023-09-19T18:37:40;7.95;;;2.42;;
23336;SDS011;11840;45.414;12.372;2023-09-19T18:40:07;9.35;;;3.05;;
23336;SDS011;11840;45.414;12.372;2023-09-19T18:42:36;6.13;;;3.38;;
23336;SDS011;11840;45.414;12.372;2023-09-19T18:45:03;6.55;;;2.50;;
23336;SDS011;11840;45.414;12.372;2023-09-19T18:47:29;6.18;;;2.50;;
23336;SDS011;11840;45.414;12.372;2023-09-19T18:49:56;6.97;;;2.97;;
23336;SDS011;11840;45.414;12.372;2023-09-19T18:52:22;7.65;;;2.60;;
23336;SDS011;11840;45.414;12.372;2023-09-19T18:54:48;6.63;;;2.97;;
23336;SDS011;11840;45.414;12.372;2023-09-19T18:57:15;7.15;;;3.22;;
23336;SDS011;11840;45.414;12.372;2023-09-19T18:59:41;10.40;;;4.05;;
23336;SDS011;11840;45.414;12.372;2023-09-19T19:02:07;7.25;;;3.70;;
23336;SDS011;11840;45.414;12.372;2023-09-19T19:04:36;7.82;;;3.80;;
23336;SDS011;11840;45.414;12.372;2023-09-19T19:07:08;10.50;;;4.10;;
23336;SDS011;11840;45.414;12.372;2023-09-19T19:09:37;10.02;;;4.30;;
23336;SDS011;11840;45.414;12.372;2023-09-19T19:12:04;15.95;;;7.35;;
23336;SDS011;11840;45.414;12.372;2023-09-19T19:14:29;20.48;;;12.10;;
23336;SDS011;11840;45.414;12.372;2023-09-19T19:16:55;10.93;;;5.68;;
23336;SDS011;11840;45.414;12.372;2023-09-19T19:19:24;9.55;;;4.88;;
23336;SDS011;11840;45.414;12.372;2023-09-19T19:21:49;11.63;;;5.15;;
23336;SDS011;11840;45.414;12.372;2023-09-19T19:24:15;9.43;;;4.30;;
23336;SDS011;11840;45.414;12.372;2023-09-19T19:26:43;8.55;;;4.60;;
23336;SDS011;11840;45.414;12.372;2023-09-19T19:29:11;16.48;;;5.85;;
23336;SDS011;11840;45.414;12.372;2023-09-19T19:31:38;10.20;;;5.28;;
23336;SDS011;11840;45.414;12.372;2023-09-19T19:34:03;13.85;;;6.03;;
23336;SDS011;11840;45.414;12.372;2023-09-19T19:36:29;17.15;;;5.50;;
23336;SDS011;11840;45.414;12.372;2023-09-19T19:38:55;10.27;;;5.78;;
23336;SDS011;11840;45.414;12.372;2023-09-19T19:41:21;10.60;;;5.43;;
23336;SDS011;11840;45.414;12.372;2023-09-19T19:43:47;14.75;;;6.18;;
23336;SDS011;11840;45.414;12.372;2023-09-19T19:46:13;14.85;;;6.45;;
23336;SDS011;11840;45.414;12.372;2023-09-19T19:48:39;13.73;;;5.97;;
23336;SDS011;11840;45.414;12.372;2023-09-19T19:51:07;11.90;;;5.75;;
23336;SDS011;11840;45.414;12.372;2023-09-19T19:53:33;12.43;;;6.70;;
23336;SDS011;11840;45.414;12.372;2023-09-19T19:55:59;14.75;;;6.28;;
23336;SDS011;11840;45.414;12.372;2023-09-19T19:58:25;17.13;;;6.18;;
23336;SDS011;11840;45.414;12.372;2023-09-19T20:00:55;15.95;;;5.82;;
23336;SDS011;11840;45.414;12.372;2023-09-19T20:03:25;12.20;;;6.20;;
23336;SDS011;11840;45.414;12.372;2023-09-19T20:05:52;13.77;;;6.60;;
23336;SDS011;11840;45.414;12.372;2023-09-19T20:08:18;13.10;;;6.60;;
23336;SDS011;11840;45.414;12.372;2023-09-19T20:10:44;13.00;;;6.55;;
23336;SDS011;11840;45.414;12.372;2023-09-19T20:13:11;16.42;;;6.55;;
23336;SDS011;11840;45.414;12.372;2023-09-19T20:15:38;14.50;;;7.03;;
23336;SDS011;11840;45.414;12.372;2023-09-19T20:18:05;15.15;;;7.50;;
23336;SDS011;11840;45.414;12.372;2023-09-19T20:20:33;29.15;;;19.05;;
23336;SDS011;11840;45.414;12.372;2023-09-19T20:22:59;21.73;;;7.80;;
23336;SDS011;11840;45.414;12.372;2023-09-19T20:25:26;12.43;;;6.78;;
23336;SDS011;11840;45.414;12.372;2023-09-19T20:27:53;13.05;;;7.43;;
23336;SDS011;11840;45.414;12.372;2023-09-19T20:30:20;18.75;;;7.22;;
23336;SDS011;11840;45.414;12.372;2023-09-19T20:32:49;17.20;;;6.88;;
23336;SDS011;11840;45.414;12.372;2023-09-19T20:35:15;16.83;;;6.75;;
23336;SDS011;11840;45.414;12.372;2023-09-19T20:37:42;16.27;;;6.40;;
23336;SDS011;11840;45.414;12.372;2023-09-19T20:40:07;17.33;;;8.15;;
23336;SDS011;11840;45.414;12.372;2023-09-19T20:42:37;16.42;;;7.75;;
23336;SDS011;11840;45.414;12.372;2023-09-19T20:45:07;14.40;;;6.90;;
23336;SDS011;11840;45.414;12.372;2023-09-19T20:47:38;18.27;;;7.72;;
23336;SDS011;11840;45.414;12.372;2023-09-19T20:50:05;16.95;;;7.32;;
23336;SDS011;11840;45.414;12.372;2023-09-19T20:52:31;17.55;;;6.68;;
23336;SDS011;11840;45.414;12.372;2023-09-19T20:54:57;17.08;;;9.43;;
23336;SDS011;11840;45.414;12.372;2023-09-19T20:57:23;15.70;;;8.60;;
23336;SDS011;11840;45.414;12.372;2023-09-19T20:59:49;18.23;;;7.82;;
23336;SDS011;11840;45.414;12.372;2023-09-19T21:02:16;15.52;;;7.32;;
23336;SDS011;11840;45.414;12.372;2023-09-19T21:04:43;17.25;;;7.85;;
23336;SDS011;11840;45.414;12.372;2023-09-19T21:07:10;15.07;;;8.18;;
23336;SDS011;11840;45.414;12.372;2023-09-19T21:09:36;20.50;;;8.77;;
23336;SDS011;11840;45.414;12.372;2023-09-19T21:12:03;18.63;;;8.13;;
23336;SDS011;11840;45.414;12.372;2023-09-19T21:14:32;15.30;;;7.40;;
23336;SDS011;11840;45.414;12.372;2023-09-19T21:16:58;13.88;;;7.45;;
23336;SDS011;11840;45.414;12.372;2023-09-19T21:19:25;17.10;;;7.78;;
23336;SDS011;11840;45.414;12.372;2023-09-19T21:21:51;15.52;;;7.55;;
23336;SDS011;11840;45.414;12.372;2023-09-19T21:24:19;20.23;;;7.45;;
23336;SDS011;11840;45.414;12.372;2023-09-19T21:26:46;15.95;;;8.82;;
23336;SDS011;11840;45.414;12.372;2023-09-19T21:29:12;16.38;;;8.00;;
23336;SDS011;11840;45.414;12.372;2023-09-19T21:31:39;15.45;;;8.15;;
23336;SDS011;11840;45.414;12.372;2023-09-19T21:34:06;15.32;;;8.63;;
23336;SDS011;11840;45.414;12.372;2023-09-19T21:36:33;21.70;;;9.40;;
23336;SDS011;11840;45.414;12.372;2023-09-19T21:38:59;15.02;;;7.30;;
23336;SDS011;11840;45.414;12.372;2023-09-19T21:41:25;20.30;;;8.45;;
23336;SDS011;11840;45.414;12.372;2023-09-19T21:43:51;19.67;;;8.82;;
23336;SDS011;11840;45.414;12.372;2023-09-19T21:46:17;20.85;;;9.82;;
23336;SDS011;11840;45.414;12.372;2023-09-19T21:48:43;18.38;;;8.95;;
23336;SDS011;11840;45.414;12.372;2023-09-19T21:51:17;19.23;;;8.80;;
23336;SDS011;11840;45.414;12.372;2023-09-19T21:53:43;19.05;;;9.27;;
23336;SDS011;11840;45.414;12.372;2023-09-19T21:56:09;19.98;;;9.70;;
23336;SDS011;11840;45.414;12.372;2023-09-19T21:58:35;20.63;;;9.48;;
23336;SDS011;11840;45.414;12.372;2023-09-19T22:01:02;19.42;;;9.52;;
